Time;durP1;ratioP1;P1;durP2;ratioP2;P2;SDS_P1;SDS_P2;PMS_P1;PMS_P2;Temp;Humidity;BMP_temperature;BMP_pressure;BME280_temperature;BME280_humidity;BME280_pressure;Samples;Min_cycle;Max_cycle;Signal;HPM_P1;HPM_P2
2021/09/25 00:01:12;;;;;;;7.90;6.65;;;;;;;17.09;68.47;100574.53;4922555;28;128394;-65
2021/09/25 00:03:38;;;;;;;7.20;6.50;;;;;;;17.09;68.63;100572.63;4922738;28;127401;-65
2021/09/25 00:06:04;;;;;;;8.35;6.50;;;;;;;17.08;68.41;100579.19;4923356;28;116331;-62
2021/09/25 00:08:31;;;;;;;6.97;6.22;;;;;;;17.09;68.64;100577.25;4923040;28;98174;-65
2021/09/25 00:10:57;;;;;;;9.65;6.60;;;;;;;17.09;68.61;100582.72;4922983;28;121161;-62
2021/09/25 00:13:23;;;;;;;7.90;6.50;;;;;;;17.09;68.70;100583.50;4923506;28;98038;-62
2021/09/25 00:15:49;;;;;;;8.13;6.50;;;;;;;17.08;68.65;100572.94;4922800;28;119443;-65
2021/09/25 00:18:15;;;;;;;9.63;6.97;;;;;;;17.08;68.22;100572.94;4922189;28;128869;-62
2021/09/25 00:20:41;;;;;;;7.68;6.78;;;;;;;17.07;68.65;100572.13;4922440;28;129604;-64
2021/09/25 00:23:07;;;;;;;7.72;6.22;;;;;;;17.07;68.65;100571.34;4921958;28;128429;-65
2021/09/25 00:25:34;;;;;;;7.63;6.65;;;;;;;17.07;68.27;100582.22;4920861;28;118748;-65
2021/09/25 00:28:00;;;;;;;7.93;6.70;;;;;;;17.05;68.66;100582.50;4921717;28;127835;-62
2021/09/25 00:30:26;;;;;;;7.85;6.93;;;;;;;17.07;68.83;100571.34;4922935;28;120577;-65
2021/09/25 00:32:52;;;;;;;10.82;7.10;;;;;;;17.06;68.95;100573.25;4922191;28;126272;-62
2021/09/25 00:35:18;;;;;;;8.10;6.80;;;;;;;17.07;68.72;100579.50;4920451;28;115104;-62
2021/09/25 00:37:44;;;;;;;7.93;7.10;;;;;;;17.07;68.99;100579.50;4888542;28;98640;-65
2021/09/25 00:40:12;;;;;;;7.57;6.78;;;;;;;17.06;68.73;100570.53;4922483;28;102103;-62
2021/09/25 00:42:38;;;;;;;7.50;6.53;;;;;;;17.05;68.61;100571.63;4921201;28;98157;-62
2021/09/25 00:45:05;;;;;;;8.55;7.15;;;;;;;17.04;68.79;100574.66;4922321;28;98002;-62
2021/09/25 00:47:32;;;;;;;10.00;7.00;;;;;;;17.03;68.59;100573.88;4922842;28;99230;-62
2021/09/25 00:49:58;;;;;;;8.90;7.07;;;;;;;17.02;68.82;100577.72;4922292;28;98206;-66
2021/09/25 00:52:24;;;;;;;7.00;6.40;;;;;;;17.00;68.62;100570.94;4921853;28;126277;-65
2021/09/25 00:54:50;;;;;;;8.52;6.88;;;;;;;17.01;69.09;100575.28;4922165;28;117658;-62
2021/09/25 00:57:16;;;;;;;7.25;6.55;;;;;;;17.01;68.88;100578.00;4920239;28;126623;-65
2021/09/25 00:59:43;;;;;;;7.20;6.50;;;;;;;17.00;68.90;100576.41;4888502;28;98160;-62
2021/09/25 01:02:11;;;;;;;7.40;6.68;;;;;;;16.99;68.97;100582.97;4904224;28;97876;-65
2021/09/25 01:04:38;;;;;;;7.22;6.13;;;;;;;16.99;68.89;100582.97;4922740;28;97709;-62
2021/09/25 01:07:04;;;;;;;8.27;6.78;;;;;;;16.98;68.86;100582.16;4920667;28;129047;-65
2021/09/25 01:09:31;;;;;;;8.18;6.60;;;;;;;16.98;68.90;100587.59;4922392;28;115549;-62
2021/09/25 01:11:57;;;;;;;8.85;6.50;;;;;;;16.99;68.93;100588.41;4918350;28;120679;-66
2021/09/25 01:14:23;;;;;;;6.93;6.22;;;;;;;16.97;69.01;100588.69;4922807;28;97876;-62
2021/09/25 01:16:50;;;;;;;7.10;6.22;;;;;;;16.98;69.12;100584.06;4922111;28;126040;-65
2021/09/25 01:19:16;;;;;;;9.02;6.57;;;;;;;16.99;68.94;100588.41;4919983;28;128227;-62
2021/09/25 01:21:42;;;;;;;6.90;6.13;;;;;;;16.98;69.11;100584.06;4922928;28;98043;-65
2021/09/25 01:24:08;;;;;;;6.90;6.13;;;;;;;16.97;69.19;100582.44;4920515;28;113176;-62
2021/09/25 01:26:34;;;;;;;7.00;6.32;;;;;;;16.97;69.17;100580.53;4919963;28;104517;-62
2021/09/25 01:29:00;;;;;;;8.75;6.22;;;;;;;16.96;69.05;100581.66;4921940;28;120642;-62
2021/09/25 01:31:26;;;;;;;6.53;5.88;;;;;;;16.98;69.08;100584.06;4922167;28;113893;-63
2021/09/25 01:33:52;;;;;;;6.72;5.90;;;;;;;16.97;69.19;100582.44;4922485;28;117641;-62
2021/09/25 01:36:18;;;;;;;7.72;6.38;;;;;;;16.98;69.06;100589.50;4920674;28;110524;-65
2021/09/25 01:38:45;;;;;;;7.70;5.85;;;;;;;16.96;69.22;100583.56;4921988;28;98907;-65
2021/09/25 01:41:11;;;;;;;6.32;5.35;;;;;;;16.95;69.12;100582.75;4922279;28;127625;-63
2021/09/25 01:43:37;;;;;;;6.93;5.82;;;;;;;16.96;69.30;100589.00;4920593;28;109679;-62
2021/09/25 01:46:03;;;;;;;6.68;5.93;;;;;;;16.96;69.07;100584.38;4919400;28;128376;-66
2021/09/25 01:48:29;;;;;;;7.97;5.65;;;;;;;16.95;69.00;100592.84;4921352;28;106570;-65
2021/09/25 01:50:55;;;;;;;6.80;6.00;;;;;;;16.96;69.13;100583.56;4921516;28;103478;-63
2021/09/25 01:53:22;;;;;;;6.03;5.43;;;;;;;16.95;69.32;100590.13;4921432;28;117571;-65
2021/09/25 01:55:49;;;;;;;6.97;5.40;;;;;;;16.94;69.05;100583.88;4919234;28;110066;-62
2021/09/25 01:58:15;;;;;;;6.60;5.43;;;;;;;16.95;69.18;100579.25;4920887;28;117986;-65
2021/09/25 02:00:41;;;;;;;6.65;5.38;;;;;;;16.95;69.27;100588.22;4921269;28;127586;-63
2021/09/25 02:03:09;;;;;;;7.05;5.93;;;;;;;16.95;69.03;100592.84;4920920;28;98386;-62
2021/09/25 02:05:35;;;;;;;6.35;5.70;;;;;;;16.95;69.06;100587.41;4903628;28;117886;-66
2021/09/25 02:08:03;;;;;;;6.30;5.28;;;;;;;16.95;68.90;100584.69;4920725;28;129570;-62
2021/09/25 02:10:29;;;;;;;6.07;5.45;;;;;;;16.95;68.91;100593.66;4921519;28;98510;-62
2021/09/25 02:12:55;;;;;;;6.75;5.07;;;;;;;16.95;69.08;100590.13;4920915;28;117566;-65
2021/09/25 02:15:21;;;;;;;5.72;4.60;;;;;;;16.94;69.14;100589.34;4921478;28;127014;-62
2021/09/25 02:17:47;;;;;;;4.97;4.47;;;;;;;16.93;69.01;100593.94;4918804;28;113992;-62
2021/09/25 02:20:13;;;;;;;6.88;5.03;;;;;;;16.94;68.84;100589.34;4903095;28;127105;-65
2021/09/25 02:22:39;;;;;;;5.40;4.65;;;;;;;16.91;68.93;100590.75;4919635;28;109734;-62
2021/09/25 02:25:07;;;;;;;5.68;4.70;;;;;;;16.91;68.97;100593.47;4921607;28;98198;-62
2021/09/25 02:27:39;;;;;;;6.72;5.20;;;;;;;16.91;68.82;100589.94;4920728;28;97922;-65
2021/09/25 02:30:13;;;;;;;;;;;;;;;16.85;68.46;100588.44;4922161;28;97799;-62
2021/09/25 02:32:39;;;;;;;4.93;4.50;;;;;;;16.86;68.86;100590.88;4921974;28;98080;-66
2021/09/25 02:35:06;;;;;;;6.50;4.60;;;;;;;16.86;68.92;100588.13;4922144;28;98692;-65
2021/09/25 02:37:32;;;;;;;5.53;4.53;;;;;;;16.88;69.15;100593.25;4922062;28;98100;-62
2021/09/25 02:39:58;;;;;;;4.90;4.40;;;;;;;16.86;68.98;100599.03;4921267;28;98091;-65
2021/09/25 02:42:24;;;;;;;5.40;4.15;;;;;;;16.88;69.09;100602.22;4920402;28;119212;-62
2021/09/25 02:44:50;;;;;;;5.13;4.05;;;;;;;16.88;68.92;100601.44;4919590;28;127452;-62
2021/09/25 02:47:16;;;;;;;5.03;4.07;;;;;;;16.88;68.76;100610.41;4920297;28;128450;-62
2021/09/25 02:49:42;;;;;;;4.68;3.97;;;;;;;16.88;68.96;100606.88;4920709;28;127981;-62
2021/09/25 02:52:08;;;;;;;4.65;3.80;;;;;;;16.89;68.92;100614.72;4920801;28;97803;-62
2021/09/25 02:54:35;;;;;;;4.10;3.70;;;;;;;16.88;68.67;100606.88;4920044;28;127168;-65
2021/09/25 02:57:01;;;;;;;5.45;4.03;;;;;;;16.88;69.09;100615.84;4918888;28;127926;-63
2021/09/25 02:59:27;;;;;;;4.85;4.05;;;;;;;16.88;69.11;100613.13;4920747;28;113551;-65
2021/09/25 03:01:53;;;;;;;4.75;4.13;;;;;;;16.87;68.78;100614.25;4921168;28;98054;-62
2021/09/25 03:04:19;;;;;;;5.03;3.85;;;;;;;16.86;68.78;100611.84;4920561;28;111328;-63
2021/09/25 03:06:45;;;;;;;5.07;3.90;;;;;;;16.83;68.83;100605.06;4920459;28;112405;-66
2021/09/25 03:09:11;;;;;;;4.93;3.90;;;;;;;16.84;68.68;100605.88;4920941;28;97828;-65
2021/09/25 03:11:37;;;;;;;7.22;4.00;;;;;;;16.84;68.96;100617.56;4921198;28;97767;-62
2021/09/25 03:14:03;;;;;;;5.07;4.10;;;;;;;16.84;68.87;100611.31;4918120;28;128412;-62
2021/09/25 03:16:29;;;;;;;6.20;3.97;;;;;;;16.83;68.79;100613.25;4919039;28;98268;-65
2021/09/25 03:18:55;;;;;;;4.60;3.83;;;;;;;16.83;68.84;100612.44;4920187;28;126680;-62
2021/09/25 03:21:21;;;;;;;5.78;4.28;;;;;;;16.81;68.30;100617.38;4921638;28;111481;-62
2021/09/25 03:23:47;;;;;;;4.53;3.42;;;;;;;16.79;68.56;100612.25;4920179;28;129215;-62
2021/09/25 03:26:13;;;;;;;4.13;3.70;;;;;;;16.78;68.66;100612.53;4920825;28;113308;-62
2021/09/25 03:28:39;;;;;;;4.10;3.45;;;;;;;16.78;68.63;100613.38;4919665;28;128124;-62
2021/09/25 03:31:08;;;;;;;4.78;3.47;;;;;;;16.77;68.50;100614.44;4920474;28;118755;-62
2021/09/25 03:33:34;;;;;;;3.90;3.50;;;;;;;16.77;68.39;100608.22;4920243;28;112430;-62
2021/09/25 03:36:00;;;;;;;5.00;3.70;;;;;;;16.76;68.64;100610.13;4923588;28;127265;-62
2021/09/25 03:38:27;;;;;;;4.10;3.28;;;;;;;16.76;68.08;100612.03;4922636;28;127364;-62
2021/09/25 03:40:54;;;;;;;4.22;3.67;;;;;;;16.75;68.66;100611.25;4922309;28;98009;-62
2021/09/25 03:43:21;;;;;;;4.47;3.75;;;;;;;16.77;68.30;100611.72;4923258;28;99106;-62
2021/09/25 03:45:47;;;;;;;4.00;3.50;;;;;;;16.75;68.48;100607.72;4923867;28;97897;-65
2021/09/25 03:48:13;;;;;;;3.60;3.25;;;;;;;16.75;68.50;100613.16;4922627;28;126324;-65
2021/09/25 03:50:39;;;;;;;4.82;3.47;;;;;;;16.76;68.35;100614.78;4923460;28;117077;-62
2021/09/25 03:53:05;;;;;;;4.57;3.38;;;;;;;16.74;68.33;100617.81;4922708;28;98551;-66
2021/09/25 03:55:31;;;;;;;3.30;3.00;;;;;;;16.74;68.32;100611.53;4922468;28;110887;-65
2021/09/25 03:57:57;;;;;;;4.78;3.38;;;;;;;16.74;68.21;100616.97;4922559;28;126865;-62
2021/09/25 04:00:24;;;;;;;3.58;2.97;;;;;;;16.72;68.22;100617.25;4923592;28;118696;-65
2021/09/25 04:02:51;;;;;;;5.32;3.30;;;;;;;16.72;68.35;100609.09;4923576;28;98107;-65
2021/09/25 04:05:20;;;;;;;3.33;3.03;;;;;;;16.73;68.41;100620.78;4904926;28;99278;-62
2021/09/25 04:07:47;;;;;;;3.30;3.00;;;;;;;16.73;68.22;100618.91;4922119;28;127707;-62
2021/09/25 04:10:13;;;;;;;4.43;2.78;;;;;;;16.74;68.43;100623.25;4923509;28;105636;-65
2021/09/25 04:12:40;;;;;;;3.30;3.00;;;;;;;16.73;68.29;100623.50;4905188;28;102693;-62
2021/09/25 04:15:08;;;;;;;3.53;2.78;;;;;;;16.73;68.22;100620.78;4922926;28;109094;-65
2021/09/25 04:17:35;;;;;;;3.35;2.95;;;;;;;16.73;68.12;100624.34;4922873;28;98608;-62
2021/09/25 04:20:02;;;;;;;3.72;3.08;;;;;;;16.73;68.24;100620.78;4923857;28;97999;-65
2021/09/25 04:22:28;;;;;;;4.18;2.90;;;;;;;16.74;68.01;100625.13;4921480;28;114406;-66
2021/09/25 04:24:54;;;;;;;4.75;3.03;;;;;;;16.73;68.57;100621.63;4921055;28;129447;-65
2021/09/25 04:27:21;;;;;;;4.15;3.13;;;;;;;16.73;68.14;100621.63;4921469;28;127686;-65
2021/09/25 04:29:47;;;;;;;3.33;2.88;;;;;;;16.73;68.03;100621.63;4923063;28;98081;-62
2021/09/25 04:32:13;;;;;;;4.78;3.17;;;;;;;16.76;68.44;100623.72;4922662;28;128998;-62
2021/09/25 04:34:39;;;;;;;3.28;2.90;;;;;;;16.83;68.07;100626.06;4922414;28;128213;-65
2021/09/25 04:37:05;;;;;;;4.00;2.92;;;;;;;16.88;68.02;100631.38;4921921;28;127270;-62
2021/09/25 04:39:31;;;;;;;3.97;3.00;;;;;;;16.93;67.43;100629.34;4923513;28;98069;-62
2021/09/25 04:41:57;;;;;;;3.67;3.08;;;;;;;16.98;67.71;100633.06;4921394;28;129074;-62
2021/09/25 04:44:23;;;;;;;4.75;2.97;;;;;;;17.01;67.61;100635.19;4922027;28;127715;-62
2021/09/25 04:46:49;;;;;;;3.17;2.83;;;;;;;17.04;67.56;100629.94;4920556;28;128026;-62
2021/09/25 04:49:16;;;;;;;3.13;2.60;;;;;;;17.05;67.31;100631.53;4921807;28;116895;-62
2021/09/25 04:51:42;;;;;;;4.20;3.08;;;;;;;17.07;66.78;100626.59;4922777;28;98849;-65
2021/09/25 04:54:09;;;;;;;4.22;3.17;;;;;;;17.09;67.06;100631.72;4922737;28;97784;-62
2021/09/25 04:56:35;;;;;;;4.85;3.17;;;;;;;17.10;67.13;100627.91;4921387;28;98862;-65
2021/09/25 04:59:01;;;;;;;4.50;3.10;;;;;;;17.11;67.00;100632.25;4922816;28;116506;-66
2021/09/25 05:01:27;;;;;;;3.83;2.90;;;;;;;17.10;67.03;100634.16;4921928;28;126709;-66
2021/09/25 05:03:53;;;;;;;4.28;3.10;;;;;;;17.11;66.94;100634.97;4922076;28;98155;-62
2021/09/25 05:06:19;;;;;;;3.45;2.97;;;;;;;17.12;67.25;100636.56;4920726;28;127397;-62
2021/09/25 05:08:45;;;;;;;4.53;2.70;;;;;;;17.12;66.70;100629.19;4921559;28;117218;-65
2021/09/25 05:11:11;;;;;;;4.25;2.80;;;;;;;17.13;66.79;100640.91;4920087;28;98863;-65
2021/09/25 05:13:37;;;;;;;3.38;2.72;;;;;;;17.13;66.79;100638.16;4919050;28;129588;-62
2021/09/25 05:16:04;;;;;;;3.38;2.85;;;;;;;17.13;66.55;100646.34;4921327;28;127831;-62
2021/09/25 05:18:30;;;;;;;4.15;2.90;;;;;;;17.14;66.63;100645.25;4921111;28;106819;-62
2021/09/25 05:20:56;;;;;;;3.65;2.70;;;;;;;17.14;66.55;100640.59;4921285;28;128073;-62
2021/09/25 05:23:22;;;;;;;3.45;2.70;;;;;;;17.15;66.38;100636.75;4920151;28;98017;-65
2021/09/25 05:25:48;;;;;;;4.50;2.88;;;;;;;17.16;66.38;100645.72;4919894;28;97924;-62
2021/09/25 05:28:14;;;;;;;3.47;2.80;;;;;;;17.17;66.30;100644.59;4916251;28;105704;-65
2021/09/25 05:30:40;;;;;;;3.05;2.70;;;;;;;17.18;66.43;100646.25;4918101;28;126434;-65
2021/09/25 05:33:07;;;;;;;2.92;2.63;;;;;;;17.18;66.24;100644.31;4919494;28;103127;-65
2021/09/25 05:35:33;;;;;;;3.90;2.53;;;;;;;17.18;66.13;100657.94;4915579;28;128643;-62
2021/09/25 05:37:59;;;;;;;4.00;2.55;;;;;;;17.19;66.05;100653.28;4918609;28;99788;-62
2021/09/25 05:40:25;;;;;;;3.97;2.80;;;;;;;17.21;66.18;100652.97;4918716;28;98291;-62
2021/09/25 05:42:51;;;;;;;3.42;2.55;;;;;;;17.22;66.00;100658.13;4917153;28;128685;-65
2021/09/25 05:45:17;;;;;;;2.92;2.42;;;;;;;17.22;65.96;100660.88;4908646;28;102308;-65
2021/09/25 05:47:44;;;;;;;3.85;2.53;;;;;;;17.24;65.87;100661.34;4919166;28;97866;-65
2021/09/25 05:50:11;;;;;;;3.78;2.60;;;;;;;17.25;65.92;100671.16;4917810;28;98745;-65
2021/09/25 05:52:37;;;;;;;3.40;2.40;;;;;;;17.24;65.67;100663.25;4918332;28;99091;-62
2021/09/25 05:55:04;;;;;;;3.85;2.63;;;;;;;17.26;65.70;100672.75;4916943;28;119244;-65
2021/09/25 05:57:30;;;;;;;4.05;2.50;;;;;;;17.27;65.52;100674.34;4918678;28;99616;-62
2021/09/25 05:59:56;;;;;;;3.78;2.40;;;;;;;17.29;65.53;100660.41;4917664;28;126857;-62
2021/09/25 06:02:22;;;;;;;2.60;2.35;;;;;;;17.30;65.38;100667.50;4916430;28;129161;-62
2021/09/25 06:04:48;;;;;;;3.63;2.50;;;;;;;17.31;65.19;100667.19;4916854;28;127147;-64
2021/09/25 06:07:15;;;;;;;2.53;2.28;;;;;;;17.32;65.19;100668.78;4918621;28;107971;-62
2021/09/25 06:09:42;;;;;;;2.85;2.30;;;;;;;17.34;65.47;100666.56;4923032;28;98533;-61
2021/09/25 06:12:08;;;;;;;2.88;2.25;;;;;;;17.38;65.39;100669.50;4919005;28;98277;-64
2021/09/25 06:14:35;;;;;;;4.15;2.30;;;;;;;17.41;65.59;100677.06;4918308;28;115355;-65
2021/09/25 06:17:01;;;;;;;2.72;2.20;;;;;;;17.43;65.44;100670.16;4917050;28;117256;-61
2021/09/25 06:19:27;;;;;;;5.30;2.35;;;;;;;17.46;65.41;100679.66;4917444;28;119430;-61
2021/09/25 06:21:53;;;;;;;4.00;2.38;;;;;;;17.49;65.24;100676.31;4917750;28;111749;-64
2021/09/25 06:24:19;;;;;;;3.10;2.47;;;;;;;17.52;65.24;100685.78;4917532;28;99096;-65
2021/09/25 06:26:45;;;;;;;3.25;2.35;;;;;;;17.56;65.32;100684.03;4916745;28;117680;-64
2021/09/25 06:29:11;;;;;;;3.00;2.20;;;;;;;17.60;64.93;100680.38;4917703;28;98867;-65
2021/09/25 06:31:37;;;;;;;4.07;2.70;;;;;;;17.63;64.33;100682.50;4916435;28;129425;-62
2021/09/25 06:34:03;;;;;;;4.50;2.30;;;;;;;17.69;64.66;100679.66;4917811;28;113703;-62
2021/09/25 06:36:32;;;;;;;3.83;2.70;;;;;;;17.77;64.35;100681.69;4915482;28;108470;-62
2021/09/25 06:38:59;;;;;;;3.65;2.63;;;;;;;17.86;64.52;100680.63;4918821;28;98914;-62
2021/09/25 06:41:25;;;;;;;2.83;2.30;;;;;;;17.95;64.47;100686.13;4908933;28;98854;-62
2021/09/25 06:43:51;;;;;;;3.15;2.30;;;;;;;18.13;64.05;100690.56;4918040;28;126078;-64
2021/09/25 06:46:17;;;;;;;3.15;2.50;;;;;;;18.26;63.92;100688.84;4917093;28;118746;-64
2021/09/25 06:48:43;;;;;;;3.90;2.60;;;;;;;18.36;63.09;100694.06;4917499;28;128391;-62
2021/09/25 06:51:09;;;;;;;2.90;2.60;;;;;;;18.42;63.42;100691.19;4917074;28;128329;-62
2021/09/25 06:53:35;;;;;;;3.38;2.40;;;;;;;18.45;63.36;100690.56;4917679;28;98477;-62
2021/09/25 06:56:01;;;;;;;5.00;2.72;;;;;;;18.56;63.13;100692.69;4918856;28;97969;-62
2021/09/25 06:58:27;;;;;;;4.45;2.60;;;;;;;18.74;61.94;100687.31;4917435;28;125964;-62
2021/09/25 07:00:53;;;;;;;3.47;2.35;;;;;;;18.91;62.09;100695.56;4917850;28;109625;-62
2021/09/25 07:03:19;;;;;;;2.80;2.30;;;;;;;19.09;61.64;100701.88;4916474;28;127662;-65
2021/09/25 07:05:46;;;;;;;3.90;2.45;;;;;;;19.20;61.49;100694.19;4900270;28;98029;-65
2021/09/25 07:08:12;;;;;;;4.20;2.35;;;;;;;19.26;61.25;100690.19;4933509;28;126261;-65
2021/09/25 07:10:38;;;;;;;2.70;2.50;;;;;;;19.30;61.30;100700.13;4913082;28;98504;-62
2021/09/25 07:13:04;;;;;;;3.38;2.65;;;;;;;19.37;60.74;100695.00;4919662;28;127463;-62
2021/09/25 07:15:31;;;;;;;5.03;2.60;;;;;;;19.57;60.28;100704.50;4921653;28;117100;-65
2021/09/25 07:17:57;;;;;;;3.50;2.63;;;;;;;19.67;60.00;100708.06;4902929;28;117440;-65
2021/09/25 07:20:23;;;;;;;2.95;2.65;;;;;;;19.75;59.89;100705.31;4918755;28;121239;-65
2021/09/25 07:22:52;;;;;;;3.63;2.35;;;;;;;19.85;59.78;100710.47;4918965;28;98106;-65
2021/09/25 07:25:22;;;;;;;6.15;2.72;;;;;;;19.94;59.22;100712.38;4921410;28;98053;-65
2021/09/25 07:27:51;;;;;;;3.47;2.58;;;;;;;19.99;59.20;100707.53;4920104;28;107905;-65
2021/09/25 07:30:18;;;;;;;3.90;2.83;;;;;;;20.06;59.04;100712.50;4920912;28;98091;-65
2021/09/25 07:32:44;;;;;;;3.83;2.90;;;;;;;20.25;58.54;100714.88;4917220;28;127631;-65
2021/09/25 07:35:11;;;;;;;4.75;2.72;;;;;;;20.33;58.32;100714.84;4918965;28;117555;-62
2021/09/25 07:37:37;;;;;;;4.97;2.92;;;;;;;20.43;57.92;100721.91;4919276;28;98475;-65
2021/09/25 07:40:04;;;;;;;4.72;3.08;;;;;;;20.57;57.50;100722.53;4918540;28;98731;-62
2021/09/25 07:42:31;;;;;;;3.85;3.08;;;;;;;20.69;57.28;100737.47;4920201;28;125053;-62
2021/09/25 07:44:57;;;;;;;4.00;3.00;;;;;;;20.73;57.11;100733.72;4920778;28;98132;-62
2021/09/25 07:47:23;;;;;;;4.45;3.33;;;;;;;20.86;56.80;100734.63;4920292;28;98215;-65
2021/09/25 07:49:49;;;;;;;3.75;2.83;;;;;;;20.99;56.52;100738.28;4920076;28;128546;-65
2021/09/25 07:52:16;;;;;;;3.67;2.70;;;;;;;21.12;55.91;100739.97;4919010;28;127075;-65
2021/09/25 07:54:43;;;;;;;3.97;2.85;;;;;;;21.22;56.09;100738.78;4920674;28;97739;-65
2021/09/25 07:57:09;;;;;;;3.13;2.40;;;;;;;21.35;55.97;100737.78;4920071;28;97894;-65
2021/09/25 07:59:35;;;;;;;3.55;3.10;;;;;;;21.54;55.61;100737.31;4919826;28;119823;-64
2021/09/25 08:02:01;;;;;;;4.60;2.85;;;;;;;21.78;54.90;100736.63;4919035;28;127459;-62
2021/09/25 08:04:27;;;;;;;3.60;3.00;;;;;;;22.09;54.21;100741.66;4919913;28;98017;-62
2021/09/25 08:06:53;;;;;;;5.70;3.15;;;;;;;22.89;52.60;100732.19;4920174;28;98312;-65
2021/09/25 08:09:23;;;;;;;4.50;3.42;;;;;;;23.03;51.55;100738.97;4920105;28;106887;-65
2021/09/25 08:11:50;;;;;;;4.70;3.15;;;;;;;23.42;51.44;100735.81;4919589;28;97901;-62
2021/09/25 08:14:16;;;;;;;3.35;2.80;;;;;;;24.14;50.08;100730.41;4920664;28;107007;-62
2021/09/25 08:16:42;;;;;;;4.13;2.88;;;;;;;24.13;49.79;100735.13;4919686;28;98318;-65
2021/09/25 08:19:08;;;;;;;3.78;2.95;;;;;;;25.00;47.88;100729.84;4917237;28;128255;-62
2021/09/25 08:21:34;;;;;;;4.13;2.78;;;;;;;24.96;47.52;100736.06;4899821;28;127837;-65
2021/09/25 08:24:00;;;;;;;4.90;2.92;;;;;;;24.62;47.83;100740.34;4919026;28;119879;-62
2021/09/25 08:26:26;;;;;;;4.38;2.80;;;;;;;24.19;48.88;100739.22;4919184;28;128102;-65
2021/09/25 08:28:52;;;;;;;3.55;3.20;;;;;;;23.83;49.46;100736.66;4917375;28;125624;-62
2021/09/25 08:31:18;;;;;;;4.90;3.40;;;;;;;23.59;49.73;100732.00;4918487;28;125312;-65
2021/09/25 08:33:45;;;;;;;4.72;3.15;;;;;;;23.46;50.32;100732.03;4919702;28;117502;-62
2021/09/25 08:36:11;;;;;;;5.40;3.58;;;;;;;23.48;50.13;100737.97;4918742;28;98586;-63
2021/09/25 08:38:37;;;;;;;4.47;3.42;;;;;;;24.03;48.98;100740.34;4917194;28;128233;-62
2021/09/25 08:41:03;;;;;;;3.30;3.00;;;;;;;23.86;49.36;100744.22;4917519;28;126912;-62
2021/09/25 08:43:29;;;;;;;5.05;3.08;;;;;;;24.81;47.30;100752.63;4917199;28;118250;-65
2021/09/25 08:46:00;;;;;;;3.53;2.95;;;;;;;25.98;45.19;100750.88;4919750;28;98416;-62
2021/09/25 08:48:27;;;;;;;3.53;2.60;;;;;;;25.48;46.45;100758.13;4902462;28;98180;-62
2021/09/25 08:50:54;;;;;;;3.20;2.90;;;;;;;25.11;46.64;100759.28;4919100;28;98061;-65
2021/09/25 08:53:20;;;;;;;4.07;2.90;;;;;;;24.93;46.83;100758.03;4917870;28;98343;-65
2021/09/25 08:55:46;;;;;;;5.43;3.13;;;;;;;24.90;47.23;100758.72;4900867;28;127144;-62
2021/09/25 08:58:12;;;;;;;3.75;3.25;;;;;;;24.71;47.25;100763.00;4919769;28;105905;-66
2021/09/25 09:00:46;;;;;;;3.63;2.70;;;;;;;24.34;48.52;100748.66;4917444;28;110250;-65
2021/09/25 09:03:38;;;;;;;4.07;2.38;;;;;;;24.02;49.24;100758.81;4918481;28;98320;-62
2021/09/25 09:06:21;;;;;;;4.15;2.90;;;;;;;23.92;49.06;100762.84;4919196;28;98553;-65
2021/09/25 09:08:50;;;;;;;4.43;2.58;;;;;;;23.69;49.04;100770.84;4919452;28;98466;-62
2021/09/25 09:11:18;;;;;;;3.38;2.72;;;;;;;23.47;49.47;100765.84;4919757;28;98470;-65
2021/09/25 09:13:50;;;;;;;4.32;3.00;;;;;;;23.22;49.60;100767.81;4920003;28;97929;-65
2021/09/25 09:16:16;;;;;;;10.55;6.88;;;;;;;23.02;50.13;100775.03;4918970;28;98865;-65
2021/09/25 09:18:45;;;;;;;12.38;10.10;;;;;;;22.98;49.92;100761.19;4918430;28;98526;-62
2021/09/25 09:21:24;;;;;;;5.45;4.35;;;;;;;22.99;50.18;100768.31;4919329;28;98386;-62
2021/09/25 09:24:05;;;;;;;6.97;4.93;;;;;;;22.99;50.65;100765.56;4918878;28;97914;-65
2021/09/25 09:26:38;;;;;;;7.82;5.43;;;;;;;22.84;50.80;100771.69;4918052;28;99167;-65
2021/09/25 09:29:07;;;;;;;9.48;7.45;;;;;;;22.70;50.36;100774.78;4919290;28;114894;-62
2021/09/25 09:31:34;;;;;;;8.65;6.90;;;;;;;22.66;50.98;100773.06;4917162;28;112988;-65
2021/09/25 09:34:02;;;;;;;5.32;3.90;;;;;;;22.58;51.14;100777.50;4919447;28;97902;-65
2021/09/25 09:36:34;;;;;;;3.80;3.35;;;;;;;22.53;50.94;100777.72;4918544;28;98847;-62
2021/09/25 09:39:18;;;;;;;3.38;2.95;;;;;;;22.58;51.32;100774.75;4919359;28;101973;-64
2021/09/25 09:41:58;;;;;;;3.58;3.25;;;;;;;22.89;50.58;100779.72;4918747;28;98488;-65
2021/09/25 09:44:31;;;;;;;3.80;2.97;;;;;;;22.98;50.44;100783.16;4917630;28;97841;-65
2021/09/25 09:47:05;;;;;;;4.00;3.05;;;;;;;22.97;50.46;100781.56;4918349;28;98145;-62
2021/09/25 09:49:39;;;;;;;5.25;4.20;;;;;;;22.91;51.15;100782.97;4918626;28;98989;-62
2021/09/25 09:52:10;;;;;;;3.95;3.55;;;;;;;22.84;51.29;100784.66;4917843;28;112679;-66
2021/09/25 09:54:38;;;;;;;6.68;4.90;;;;;;;22.78;51.79;100793.09;4917158;28;98270;-65
2021/09/25 09:57:08;;;;;;;6.78;5.20;;;;;;;22.89;51.24;100790.72;4916076;28;105155;-62
2021/09/25 09:59:34;;;;;;;5.13;4.15;;;;;;;23.13;50.90;100787.19;4918220;28;98418;-65
2021/09/25 10:02:00;;;;;;;6.13;4.80;;;;;;;23.48;49.78;100782.00;4917788;28;113946;-65
2021/09/25 10:04:27;;;;;;;6.22;5.28;;;;;;;23.72;49.59;100783.91;4918095;28;118191;-62
2021/09/25 10:06:53;;;;;;;4.10;3.40;;;;;;;23.99;49.09;100785.06;4913099;28;98598;-65
2021/09/25 10:09:22;;;;;;;5.97;4.22;;;;;;;25.32;47.21;100782.97;4912237;28;99500;-62
2021/09/25 10:11:54;;;;;;;3.97;2.90;;;;;;;26.06;45.87;100777.47;4916356;28;99366;-62
2021/09/25 10:14:28;;;;;;;;;;;;;;;26.60;46.39;100785.59;4918582;28;98025;-65
2021/09/25 10:16:56;;;;;;;4.38;2.88;;;;;;;26.50;45.06;100786.22;4915166;28;113066;-65
2021/09/25 10:19:30;;;;;;;3.22;2.85;;;;;;;26.34;44.51;100785.50;4901332;28;98724;-62
2021/09/25 10:22:14;;;;;;;5.50;3.30;;;;;;;26.37;44.38;100781.97;4918266;28;98283;-65
2021/09/25 10:24:51;;;;;;;3.08;2.60;;;;;;;26.54;43.86;100792.59;4915502;28;104339;-65
2021/09/25 10:27:17;;;;;;;4.95;3.50;;;;;;;26.34;44.20;100782.75;4915671;28;98443;-65
2021/09/25 10:29:48;;;;;;;4.30;2.60;;;;;;;26.01;44.86;100775.78;4883678;28;115381;-62
2021/09/25 10:32:22;;;;;;;2.95;2.40;;;;;;;25.60;46.01;100777.28;4917220;28;116264;-62
2021/09/25 10:35:06;;;;;;;3.42;1.90;;;;;;;25.17;46.55;100777.13;4918898;28;97716;-62
2021/09/25 10:37:55;;;;;;;4.03;1.80;;;;;;;24.83;47.08;100780.59;4916494;28;99021;-65
2021/09/25 10:40:29;;;;;;;3.08;1.77;;;;;;;24.68;47.23;100777.50;4918282;28;98158;-65
2021/09/25 10:43:00;;;;;;;2.50;1.38;;;;;;;24.55;47.18;100775.19;4917108;28;99743;-65
2021/09/25 10:45:32;;;;;;;2.67;1.67;;;;;;;24.43;47.07;100776.06;4902675;28;104658;-62
2021/09/25 10:48:15;;;;;;;2.33;1.63;;;;;;;24.31;47.49;100770.59;4915573;28;112994;-64
2021/09/25 10:50:55;;;;;;;2.30;1.40;;;;;;;24.21;47.61;100778.22;4914972;28;98714;-62
2021/09/25 10:53:36;;;;;;;4.72;1.77;;;;;;;24.08;47.91;100773.91;4916901;28;119738;-64
2021/09/25 10:56:05;;;;;;;3.33;1.90;;;;;;;24.07;47.79;100766.00;4918174;28;98365;-64
2021/09/25 10:58:36;;;;;;;2.47;1.80;;;;;;;24.02;48.06;100777.28;4918388;28;104346;-62
2021/09/25 11:01:16;;;;;;;2.97;2.30;;;;;;;24.02;47.72;100778.09;4917438;28;97795;-65
2021/09/25 11:03:48;;;;;;;2.47;2.00;;;;;;;24.03;47.67;100773.38;4918050;28;98738;-65
2021/09/25 11:06:39;;;;;;;3.03;2.00;;;;;;;24.01;48.06;100776.47;4918337;28;97882;-65
2021/09/25 11:09:09;;;;;;;3.38;2.17;;;;;;;23.98;47.73;100780.72;4912314;28;98308;-62
2021/09/25 11:11:45;;;;;;;3.13;2.20;;;;;;;23.95;47.91;100786.94;4917683;28;98326;-65
2021/09/25 11:14:27;;;;;;;2.65;2.22;;;;;;;23.97;48.03;100789.31;4918314;28;97783;-62
2021/09/25 11:17:12;;;;;;;3.00;2.00;;;;;;;24.04;48.26;100781.28;4917797;28;97953;-62
2021/09/25 11:20:01;;;;;;;3.15;2.22;;;;;;;24.09;48.13;100781.03;4917376;28;99083;-62
2021/09/25 11:22:45;;;;;;;2.88;1.90;;;;;;;24.15;47.91;100770.56;4915368;28;98321;-62
2021/09/25 11:25:16;;;;;;;2.08;1.58;;;;;;;24.07;48.59;100774.28;4918135;28;97859;-65